createdAt,value
2018-07-28T00:01:25.155Z,24.69
2018-07-28T00:03:53.821Z,24.66
2018-07-28T00:06:22.438Z,24.65
2018-07-28T00:09:00.381Z,24.61
2018-07-28T00:11:29.041Z,24.63
2018-07-28T00:13:57.701Z,24.64
2018-07-28T00:16:27.250Z,24.66
2018-07-28T00:19:05.713Z,24.66
2018-07-28T00:21:34.332Z,24.67
2018-07-28T00:24:02.822Z,24.69
2018-07-28T00:26:31.396Z,24.69
2018-07-28T00:28:59.951Z,24.67
2018-07-28T00:31:29.350Z,24.68
2018-07-28T00:33:58.164Z,24.60
2018-07-28T00:36:26.856Z,24.54
2018-07-28T00:39:00.562Z,24.51
2018-07-28T00:41:30.482Z,24.48
2018-07-28T00:43:59.239Z,24.48
2018-07-28T00:46:27.716Z,24.51
2018-07-28T00:49:01.204Z,24.51
2018-07-28T00:51:29.758Z,24.44
2018-07-28T00:53:58.180Z,24.42
2018-07-28T00:56:26.591Z,24.43
2018-07-28T01:01:47.715Z,24.39
2018-07-28T01:04:16.192Z,24.36
2018-07-28T01:06:45.400Z,24.32
2018-07-28T01:09:13.952Z,24.33
2018-07-28T01:11:42.917Z,24.34
2018-07-28T01:14:12.009Z,24.36
2018-07-28T01:16:40.789Z,24.36
2018-07-28T01:19:18.826Z,24.33
2018-07-28T01:21:49.046Z,24.34
2018-07-28T01:24:18.456Z,24.30
2018-07-28T01:26:47.271Z,24.27
2018-07-28T01:29:17.357Z,24.26
2018-07-28T01:31:46.997Z,24.26
2018-07-28T01:34:15.522Z,24.23
2018-07-28T01:36:43.930Z,24.19
2018-07-28T01:39:14.590Z,24.15
2018-07-28T01:41:44.383Z,24.13
2018-07-28T01:44:12.891Z,24.11
2018-07-28T01:46:41.661Z,24.12
2018-07-28T01:49:10.393Z,24.13
2018-07-28T01:51:38.959Z,24.06
2018-07-28T01:54:07.542Z,24.04
2018-07-28T01:56:36.013Z,24.05
2018-07-28T01:59:09.499Z,24.05
2018-07-28T02:01:38.115Z,24.05
2018-07-28T02:04:06.563Z,24.03
2018-07-28T02:06:36.661Z,24.00
2018-07-28T02:09:08.473Z,23.94
2018-07-28T02:11:37.903Z,23.93
2018-07-28T02:14:06.839Z,23.88
2018-07-28T02:16:36.848Z,23.84
2018-07-28T02:19:11.613Z,23.88
2018-07-28T02:21:40.081Z,23.87
2018-07-28T02:24:08.639Z,23.88
2018-07-28T02:26:39.301Z,23.89
2018-07-28T02:29:09.265Z,23.84
2018-07-28T02:31:37.753Z,23.77
2018-07-28T02:34:06.296Z,23.73
2018-07-28T02:36:34.753Z,23.74
2018-07-28T02:39:03.363Z,23.73
2018-07-28T02:41:32.167Z,23.70
2018-07-28T02:44:01.099Z,23.66
2018-07-28T02:46:30.057Z,23.70
2018-07-28T02:48:58.701Z,23.69
2018-07-28T02:51:28.173Z,23.69
2018-07-28T02:53:56.871Z,23.65
2018-07-28T02:56:26.059Z,23.60
2018-07-28T02:58:55.097Z,23.62
2018-07-28T03:01:24.745Z,23.64
2018-07-28T03:03:53.636Z,23.66
2018-07-28T03:06:22.628Z,23.67
2018-07-28T03:08:51.842Z,23.63
2018-07-28T03:11:22.332Z,23.62
2018-07-28T03:13:51.407Z,23.59
2018-07-28T03:16:20.535Z,23.59
2018-07-28T03:18:49.628Z,23.56
2018-07-28T03:21:18.775Z,23.55
2018-07-28T03:23:47.873Z,23.56
2018-07-28T03:26:16.699Z,23.53
2018-07-28T03:28:45.715Z,23.55
2018-07-28T03:31:14.629Z,23.54
2018-07-28T03:33:43.617Z,23.55
2018-07-28T03:36:12.869Z,23.54
2018-07-28T03:38:42.335Z,23.54
2018-07-28T03:41:11.699Z,23.53
2018-07-28T03:43:40.772Z,23.55
2018-07-28T03:46:09.905Z,23.58
2018-07-28T03:48:39.113Z,23.58
2018-07-28T03:51:08.341Z,23.62
2018-07-28T03:53:37.643Z,23.62
2018-07-28T03:56:07.141Z,23.61
2018-07-28T03:58:36.063Z,23.61
2018-07-28T04:01:05.124Z,23.59
2018-07-28T04:03:34.286Z,23.54
2018-07-28T04:06:03.363Z,23.54
2018-07-28T04:08:32.453Z,23.57
2018-07-28T04:11:01.340Z,23.59
2018-07-28T04:13:30.614Z,23.58
2018-07-28T04:16:00.075Z,23.58
2018-07-28T04:18:29.196Z,23.58
2018-07-28T04:20:58.125Z,23.57
2018-07-28T04:23:27.018Z,23.56
2018-07-28T04:25:55.952Z,23.54
2018-07-28T04:28:26.157Z,23.55
2018-07-28T04:30:54.975Z,23.55
2018-07-28T04:33:24.602Z,23.52
2018-07-28T04:35:53.520Z,23.51
2018-07-28T04:38:22.385Z,23.48
2018-07-28T04:40:52.395Z,23.41
2018-07-28T04:43:20.944Z,23.41
2018-07-28T04:45:50.246Z,23.36
2018-07-28T04:48:18.663Z,23.32
2018-07-28T04:50:47.108Z,23.27
2018-07-28T04:53:15.596Z,23.24
2018-07-28T04:55:44.079Z,23.23
2018-07-28T04:58:12.624Z,23.26
2018-07-28T05:00:41.440Z,23.29
2018-07-28T05:03:09.982Z,23.29
2018-07-28T05:05:38.482Z,23.29
2018-07-28T05:08:06.881Z,23.23
2018-07-28T05:10:35.466Z,23.20
2018-07-28T05:13:04.115Z,23.17
2018-07-28T05:15:32.666Z,23.19
2018-07-28T05:18:01.382Z,23.19
2018-07-28T05:20:29.806Z,23.20
2018-07-28T05:22:58.287Z,23.16
2018-07-28T05:25:26.791Z,23.15
2018-07-28T05:27:55.350Z,23.09
2018-07-28T05:30:24.224Z,23.03
2018-07-28T05:32:52.620Z,23.02
2018-07-28T05:35:21.260Z,23.02
2018-07-28T05:37:50.112Z,23.06
2018-07-28T05:40:18.601Z,23.11
2018-07-28T05:42:47.107Z,23.13
2018-07-28T05:45:15.854Z,23.16
2018-07-28T05:47:44.375Z,23.23
2018-07-28T05:50:13.035Z,23.31
2018-07-28T05:52:41.495Z,23.36
2018-07-28T05:55:10.080Z,23.30
2018-07-28T05:57:38.649Z,23.31
2018-07-28T06:00:07.815Z,23.39
2018-07-28T06:02:36.409Z,23.43
2018-07-28T06:05:05.693Z,23.49
2018-07-28T06:07:34.275Z,23.52
2018-07-28T06:10:02.921Z,23.59
2018-07-28T06:12:31.450Z,23.65
2018-07-28T06:14:59.930Z,23.64
2018-07-28T06:17:28.442Z,23.68
2018-07-28T06:19:56.975Z,23.69
2018-07-28T06:22:25.792Z,23.74
2018-07-28T06:24:54.446Z,23.77
2018-07-28T06:27:23.246Z,23.82
2018-07-28T06:29:51.732Z,23.87
2018-07-28T06:32:21.056Z,23.86
2018-07-28T06:34:49.630Z,23.88
2018-07-28T06:37:18.105Z,23.90
2018-07-28T06:39:51.807Z,23.93
2018-07-28T06:42:20.634Z,23.98
2018-07-28T06:44:49.198Z,24.04
2018-07-28T06:47:17.657Z,24.05
2018-07-28T06:49:46.234Z,24.07
2018-07-28T06:52:14.784Z,24.09
2018-07-28T06:54:43.402Z,24.14
2018-07-28T06:57:11.958Z,24.16
2018-07-28T06:59:45.560Z,24.19
2018-07-28T07:02:14.476Z,24.23
2018-07-28T07:04:42.981Z,24.25
2018-07-28T07:07:11.460Z,24.30
2018-07-28T07:09:40.058Z,24.32
2018-07-28T07:12:08.818Z,24.36
2018-07-28T07:14:37.432Z,24.40
2018-07-28T07:17:06.170Z,24.46
2018-07-28T07:19:35.133Z,24.52
2018-07-28T07:22:03.788Z,24.54
2018-07-28T07:24:32.214Z,24.58
2018-07-28T07:27:00.760Z,24.63
2018-07-28T07:29:29.246Z,24.69
2018-07-28T07:31:58.336Z,24.74
2018-07-28T07:34:26.868Z,24.79
2018-07-28T07:36:55.398Z,24.88
2018-07-28T07:39:23.881Z,24.90
2018-07-28T07:41:52.460Z,24.96
2018-07-28T07:44:21.280Z,25.01
2018-07-28T07:46:50.146Z,25.08
2018-07-28T07:49:18.624Z,25.14
2018-07-28T07:51:47.170Z,25.22
2018-07-28T07:54:16.306Z,25.31
2018-07-28T07:56:44.762Z,25.38
2018-07-28T07:59:13.388Z,25.46
2018-07-28T08:01:41.786Z,25.53
2018-07-28T08:04:10.226Z,25.59
2018-07-28T08:06:38.784Z,25.64
2018-07-28T08:09:08.893Z,25.68
2018-07-28T08:11:37.778Z,25.66
2018-07-28T08:14:07.830Z,25.67
2018-07-28T08:16:36.416Z,25.66
2018-07-28T08:19:05.405Z,25.70
2018-07-28T08:21:34.570Z,25.79
2018-07-28T08:24:03.590Z,25.86
2018-07-28T08:26:32.092Z,25.94
2018-07-28T08:29:00.846Z,26.00
2018-07-28T08:31:29.638Z,26.06
2018-07-28T08:33:58.134Z,26.08
2018-07-28T08:36:26.928Z,26.11
2018-07-28T08:38:56.574Z,26.14
2018-07-28T08:41:26.152Z,26.16
2018-07-28T08:43:54.722Z,26.20
2018-07-28T08:46:23.137Z,26.27
2018-07-28T08:51:44.754Z,26.36
2018-07-28T08:54:14.445Z,26.43
2018-07-28T08:56:43.318Z,26.44
2018-07-28T08:59:12.474Z,26.47
2018-07-28T09:01:41.473Z,26.55
2018-07-28T09:04:11.233Z,26.61
2018-07-28T09:06:40.026Z,26.70
2018-07-28T09:09:10.662Z,26.77
2018-07-28T09:11:39.654Z,26.80
2018-07-28T09:14:09.310Z,26.87
2018-07-28T09:16:38.050Z,26.96
2018-07-28T09:19:07.148Z,27.05
2018-07-28T09:21:36.538Z,27.10
2018-07-28T09:24:05.683Z,27.15
2018-07-28T09:26:34.104Z,27.25
2018-07-28T09:29:02.606Z,27.32
2018-07-28T09:31:31.182Z,27.37
2018-07-28T09:33:59.860Z,27.44
2018-07-28T09:36:28.409Z,27.52
2018-07-28T09:38:56.818Z,27.63
2018-07-28T09:41:25.722Z,27.77
2018-07-28T09:43:54.476Z,27.90
2018-07-28T09:46:23.026Z,27.97
2018-07-28T09:48:51.636Z,28.05
2018-07-28T09:51:20.164Z,28.18
2018-07-28T09:53:48.963Z,28.33
2018-07-28T09:56:17.366Z,28.42
2018-07-28T09:58:45.956Z,28.44
2018-07-28T10:01:17.550Z,28.50
2018-07-28T10:03:46.552Z,28.59
2018-07-28T10:06:15.339Z,28.70
2018-07-28T10:08:44.863Z,28.85
2018-07-28T10:11:13.556Z,28.97
2018-07-28T10:13:42.006Z,29.02
2018-07-28T10:16:10.587Z,29.07
2018-07-28T10:18:39.130Z,29.16
2018-07-28T10:21:07.880Z,29.25
2018-07-28T10:23:36.406Z,29.35
2018-07-28T10:26:04.878Z,29.44
2018-07-28T10:28:33.354Z,29.54
2018-07-28T10:31:02.038Z,29.63
2018-07-28T10:33:30.594Z,29.72
2018-07-28T10:35:59.798Z,29.77
2018-07-28T10:38:28.304Z,29.88
2018-07-28T10:40:56.846Z,29.98
2018-07-28T10:43:26.140Z,30.03
2018-07-28T10:45:54.724Z,30.10
2018-07-28T10:48:23.132Z,30.24
2018-07-28T10:50:51.821Z,30.39
2018-07-28T10:53:20.378Z,30.62
2018-07-28T10:55:48.960Z,30.77
2018-07-28T10:58:17.436Z,30.95
2018-07-28T11:00:46.538Z,31.00
2018-07-28T11:03:14.930Z,31.11
2018-07-28T11:05:43.556Z,31.05
2018-07-28T11:08:12.328Z,30.99
2018-07-28T11:10:40.848Z,31.07
2018-07-28T11:13:09.452Z,31.25
2018-07-28T11:15:38.545Z,31.35
2018-07-28T11:18:07.116Z,31.35
2018-07-28T11:20:35.694Z,31.50
2018-07-28T11:23:04.534Z,31.67
2018-07-28T11:25:33.434Z,31.96
2018-07-28T11:28:02.028Z,32.22
2018-07-28T11:30:30.440Z,32.44
2018-07-28T11:33:10.055Z,32.57
2018-07-28T11:35:49.464Z,32.74
2018-07-28T11:38:29.094Z,32.80
2018-07-28T11:41:08.982Z,32.94
2018-07-28T11:43:48.624Z,32.82
2018-07-28T11:46:17.282Z,32.92
2018-07-28T11:48:45.710Z,32.98
2018-07-28T11:51:14.794Z,32.96
2018-07-28T11:53:43.650Z,33.04
2018-07-28T11:56:12.558Z,33.14
2018-07-28T11:58:41.425Z,33.16
2018-07-28T12:01:10.332Z,33.27
2018-07-28T12:03:40.092Z,33.50
2018-07-28T12:06:08.789Z,33.79
2018-07-28T12:08:37.750Z,33.98
2018-07-28T12:11:06.871Z,34.12
2018-07-28T12:13:35.788Z,34.46
2018-07-28T12:16:04.848Z,34.59
2018-07-28T12:18:34.683Z,34.21
2018-07-28T12:21:03.079Z,34.08
2018-07-28T12:23:31.495Z,34.32
2018-07-28T12:26:00.143Z,34.37
2018-07-28T12:28:28.557Z,34.54
2018-07-28T12:30:57.118Z,34.78
2018-07-28T12:33:25.506Z,35.05
2018-07-28T12:35:53.922Z,35.04
2018-07-28T12:38:22.361Z,34.88
2018-07-28T12:40:50.989Z,34.59
2018-07-28T12:43:19.424Z,34.56
2018-07-28T12:45:48.161Z,34.64
2018-07-28T12:48:16.590Z,34.74
2018-07-28T12:50:45.026Z,34.73
2018-07-28T12:53:13.475Z,34.73
2018-07-28T12:55:41.960Z,34.96
2018-07-28T12:58:10.543Z,35.12
2018-07-28T13:00:38.926Z,35.20
2018-07-28T13:03:07.408Z,35.36
2018-07-28T13:05:35.809Z,35.50
2018-07-28T13:08:04.335Z,35.41
2018-07-28T13:10:32.800Z,35.44
2018-07-28T13:13:01.224Z,35.41
2018-07-28T13:15:29.645Z,35.54
2018-07-28T13:17:58.227Z,35.55
2018-07-28T13:20:26.596Z,35.73
2018-07-28T13:22:55.073Z,35.49
2018-07-28T13:25:23.531Z,34.86
2018-07-28T13:27:51.933Z,34.74
2018-07-28T13:30:20.501Z,34.71
2018-07-28T13:32:48.923Z,34.85
2018-07-28T13:35:17.563Z,34.72
2018-07-28T13:37:46.025Z,34.55
2018-07-28T13:40:14.483Z,34.29
2018-07-28T13:42:42.905Z,34.11
2018-07-28T13:45:11.301Z,34.05
2018-07-28T13:47:39.751Z,34.08
2018-07-28T13:50:08.188Z,34.20
2018-07-28T13:52:36.563Z,34.05
2018-07-28T13:55:05.617Z,33.87
2018-07-28T13:57:34.076Z,33.60
2018-07-28T14:00:02.486Z,33.34
2018-07-28T14:02:30.879Z,33.08
2018-07-28T14:05:00.177Z,32.84
2018-07-28T14:07:28.674Z,32.62
2018-07-28T14:09:57.386Z,32.52
2018-07-28T14:12:25.065Z,32.47
2018-07-28T14:14:56.701Z,32.46
2018-07-28T14:17:24.365Z,32.22
2018-07-28T14:19:52.196Z,31.77
2018-07-28T14:22:20.923Z,31.30
2018-07-28T14:24:49.387Z,31.04
2018-07-28T14:27:18.005Z,30.89
2018-07-28T14:29:46.609Z,30.62
2018-07-28T14:32:15.166Z,30.48
2018-07-28T14:34:44.030Z,30.33
2018-07-28T14:37:12.639Z,30.19
2018-07-28T14:39:41.181Z,30.04
2018-07-28T14:42:10.171Z,29.91
2018-07-28T14:44:38.825Z,29.83
2018-07-28T14:47:08.253Z,29.70
2018-07-28T14:49:37.228Z,29.63
2018-07-28T14:52:05.860Z,29.54
2018-07-28T14:54:34.740Z,29.46
2018-07-28T14:57:03.199Z,29.26
2018-07-28T14:59:31.754Z,28.88
2018-07-28T15:02:00.466Z,28.52
2018-07-28T15:04:29.369Z,28.14
2018-07-28T15:06:57.888Z,27.71
2018-07-28T15:09:26.486Z,27.48
2018-07-28T15:11:55.219Z,27.03
2018-07-28T15:14:23.664Z,26.86
2018-07-28T15:16:52.345Z,27.07
2018-07-28T15:19:26.115Z,27.23
2018-07-28T15:21:54.992Z,27.37
2018-07-28T15:24:23.461Z,27.48
2018-07-28T15:26:52.756Z,27.57
2018-07-28T15:29:21.351Z,27.54
2018-07-28T15:31:49.913Z,27.53
2018-07-28T15:34:18.511Z,27.62
2018-07-28T15:36:46.955Z,27.65
2018-07-28T15:39:15.589Z,27.75
2018-07-28T15:41:44.090Z,27.82
2018-07-28T15:44:12.627Z,27.91
2018-07-28T15:46:41.493Z,27.97
2018-07-28T15:49:12.802Z,27.99
2018-07-28T15:51:41.355Z,28.02
2018-07-28T15:54:09.943Z,28.03
2018-07-28T15:56:38.555Z,28.02
2018-07-28T15:59:07.311Z,28.02
2018-07-28T16:01:36.148Z,27.99
2018-07-28T16:04:04.733Z,27.94
2018-07-28T16:06:33.193Z,27.91
2018-07-28T16:09:01.813Z,27.87
2018-07-28T16:11:30.332Z,27.84
2018-07-28T16:13:58.805Z,27.81
2018-07-28T16:16:27.533Z,27.80
2018-07-28T16:18:56.294Z,27.80
2018-07-28T16:21:25.061Z,27.80
2018-07-28T16:23:53.670Z,27.75
2018-07-28T16:26:22.309Z,27.71
2018-07-28T16:28:51.464Z,27.68
2018-07-28T16:31:20.312Z,27.67
2018-07-28T16:33:49.084Z,27.66
2018-07-28T16:36:17.893Z,27.58
2018-07-28T16:38:51.423Z,27.31
2018-07-28T16:41:20.161Z,27.05
2018-07-28T16:43:49.568Z,26.83
2018-07-28T16:46:19.035Z,26.60
2018-07-28T16:48:53.665Z,26.49
2018-07-28T16:51:22.558Z,26.32
2018-07-28T16:53:52.167Z,26.13
2018-07-28T16:56:22.392Z,26.09
2018-07-28T16:58:51.134Z,26.11
2018-07-28T17:01:19.620Z,26.13
2018-07-28T17:03:48.212Z,26.11
2018-07-28T17:06:17.023Z,26.19
2018-07-28T17:08:45.657Z,26.33
2018-07-28T17:11:14.909Z,26.47
2018-07-28T17:13:43.796Z,26.53
2018-07-28T17:16:12.582Z,26.53
2018-07-28T17:18:41.083Z,26.56
2018-07-28T17:21:09.738Z,26.49
2018-07-28T17:23:38.275Z,26.48
2018-07-28T17:26:08.050Z,26.57
2018-07-28T17:28:36.657Z,26.64
2018-07-28T17:31:05.268Z,26.73
2018-07-28T17:33:33.736Z,26.79
2018-07-28T17:36:02.619Z,26.81
2018-07-28T17:38:32.481Z,26.84
2018-07-28T17:41:01.979Z,26.86
2018-07-28T17:43:30.596Z,26.85
2018-07-28T17:45:59.376Z,26.87
2018-07-28T17:48:28.316Z,26.90
2018-07-28T17:50:57.059Z,26.90
2018-07-28T17:53:26.088Z,26.87
2018-07-28T17:55:55.155Z,26.84
2018-07-28T17:58:24.889Z,26.87
2018-07-28T18:00:53.727Z,26.84
2018-07-28T18:03:22.507Z,26.82
2018-07-28T18:05:51.255Z,26.77
2018-07-28T18:08:20.137Z,26.79
2018-07-28T18:10:49.107Z,26.76
2018-07-28T18:13:18.110Z,26.66
2018-07-28T18:15:47.521Z,26.54
2018-07-28T18:18:16.260Z,26.50
2018-07-28T18:20:45.488Z,26.43
2018-07-28T18:23:14.166Z,26.46
2018-07-28T18:25:42.690Z,26.44
2018-07-28T18:28:11.253Z,26.42
2018-07-28T18:30:39.876Z,26.40
2018-07-28T18:33:09.605Z,26.37
2018-07-28T18:35:38.247Z,26.35
2018-07-28T18:38:07.076Z,26.33
2018-07-28T18:40:45.007Z,26.32
2018-07-28T18:43:13.567Z,26.25
2018-07-28T18:45:42.405Z,26.25
2018-07-28T18:48:11.159Z,26.21
2018-07-28T18:50:39.766Z,26.24
2018-07-28T18:53:08.759Z,26.03
2018-07-28T18:55:37.755Z,25.84
2018-07-28T18:58:07.000Z,25.64
2018-07-28T19:00:40.863Z,25.59
2018-07-28T19:03:09.425Z,25.64
2018-07-28T19:05:39.120Z,25.65
2018-07-28T19:08:07.708Z,25.67
2018-07-28T19:10:41.522Z,25.67
2018-07-28T19:13:15.323Z,25.58
2018-07-28T19:15:44.016Z,25.49
2018-07-28T19:18:17.961Z,25.46
2018-07-28T19:20:46.598Z,25.48
2018-07-28T19:23:20.381Z,25.47
2018-07-28T19:25:49.019Z,25.36
2018-07-28T19:28:23.033Z,25.33
2018-07-28T19:30:56.625Z,25.35
2018-07-28T19:33:25.255Z,25.25
2018-07-28T19:35:58.932Z,25.21
2018-07-28T19:38:27.810Z,25.25
2018-07-28T19:40:56.293Z,25.27
2018-07-28T19:43:25.059Z,25.27
2018-07-28T19:45:53.560Z,25.30
2018-07-28T19:48:22.533Z,25.29
2018-07-28T19:51:00.427Z,25.18
2018-07-28T19:53:29.442Z,25.20
2018-07-28T19:55:58.401Z,25.27
2018-07-28T19:58:27.071Z,25.33
2018-07-28T20:00:55.750Z,25.42
2018-07-28T20:03:24.460Z,25.54
2018-07-28T20:05:53.103Z,25.62
2018-07-28T20:08:21.783Z,25.60
2018-07-28T20:10:50.389Z,25.38
2018-07-28T20:13:20.155Z,25.27
2018-07-28T20:15:48.743Z,25.19
2018-07-28T20:18:16.403Z,25.19
2018-07-28T20:20:45.811Z,25.06
2018-07-28T20:23:14.561Z,25.00
2018-07-28T20:25:45.507Z,25.01
2018-07-28T20:28:14.011Z,24.96
2018-07-28T20:30:43.662Z,24.97
2018-07-28T20:33:12.657Z,24.97
2018-07-28T20:35:41.297Z,24.94
2018-07-28T20:38:10.227Z,24.92
2018-07-28T20:40:39.035Z,24.88
2018-07-28T20:43:07.597Z,24.79
2018-07-28T20:45:36.169Z,24.73
2018-07-28T20:48:04.949Z,24.71
2018-07-28T20:50:43.037Z,24.62
2018-07-28T20:53:11.715Z,24.53
2018-07-28T20:55:40.337Z,24.55
2018-07-28T20:58:08.849Z,24.53
2018-07-28T21:00:37.719Z,24.51
2018-07-28T21:03:06.914Z,24.38
2018-07-28T21:05:35.542Z,24.27
2018-07-28T21:08:04.284Z,24.22
2018-07-28T21:10:32.981Z,24.25
2018-07-28T21:13:01.625Z,24.16
2018-07-28T21:15:30.451Z,24.04
2018-07-28T21:17:59.423Z,23.91
2018-07-28T21:20:28.094Z,23.79
2018-07-28T21:22:56.706Z,23.80
2018-07-28T21:25:25.461Z,23.74
2018-07-28T21:27:53.932Z,23.80
2018-07-28T21:30:22.730Z,23.85
2018-07-28T21:32:51.691Z,23.89
2018-07-28T21:35:20.477Z,23.92
2018-07-28T21:37:50.657Z,23.97
2018-07-28T21:40:19.555Z,24.01
2018-07-28T21:42:49.804Z,24.02
2018-07-28T21:45:19.125Z,24.06
2018-07-28T21:47:48.469Z,24.06
2018-07-28T21:50:17.458Z,24.08
2018-07-28T21:52:45.898Z,24.04
2018-07-28T21:55:14.607Z,24.01
2018-07-28T21:57:43.006Z,24.02
2018-07-28T22:00:12.005Z,23.97
2018-07-28T22:02:40.486Z,23.93
2018-07-28T22:05:09.554Z,23.89
2018-07-28T22:07:38.065Z,23.82
2018-07-28T22:10:06.751Z,23.72
2018-07-28T22:12:35.288Z,23.64
2018-07-28T22:15:03.986Z,23.51
2018-07-28T22:17:32.479Z,23.40
2018-07-28T22:20:01.081Z,23.42
2018-07-28T22:22:29.639Z,23.46
2018-07-28T22:24:58.804Z,23.42
2018-07-28T22:27:27.327Z,23.42
2018-07-28T22:30:01.292Z,23.44
2018-07-28T22:32:29.842Z,23.51
2018-07-28T22:34:58.492Z,23.52
2018-07-28T22:37:27.036Z,23.55
2018-07-28T22:39:56.344Z,23.58
2018-07-28T22:42:35.892Z,23.62
2018-07-28T22:45:05.746Z,23.67
2018-07-28T22:47:34.486Z,23.66
2018-07-28T22:50:03.650Z,23.65
2018-07-28T22:52:35.331Z,23.55
2018-07-28T22:55:05.550Z,23.50
2018-07-28T22:57:34.706Z,23.49
2018-07-28T23:00:03.557Z,23.39
2018-07-28T23:02:32.012Z,23.33
2018-07-28T23:05:01.000Z,23.28
2018-07-28T23:07:29.556Z,23.24
2018-07-28T23:09:58.276Z,23.17
2018-07-28T23:12:28.234Z,23.13
2018-07-28T23:14:56.954Z,23.10
2018-07-28T23:17:28.066Z,23.10
2018-07-28T23:19:57.525Z,23.03
2018-07-28T23:22:28.341Z,22.96
2018-07-28T23:24:57.768Z,22.97
2018-07-28T23:27:26.816Z,22.97
2018-07-28T23:29:57.184Z,22.96
2018-07-28T23:32:26.996Z,22.91
2018-07-28T23:34:57.456Z,22.85
2018-07-28T23:37:36.487Z,22.85
2018-07-28T23:40:23.964Z,22.86
2018-07-28T23:42:53.089Z,22.89
2018-07-28T23:45:22.188Z,22.90
2018-07-28T23:47:52.692Z,22.80
2018-07-28T23:50:21.661Z,22.79
2018-07-28T23:52:51.394Z,22.82
2018-07-28T23:55:21.017Z,22.82
2018-07-28T23:57:51.641Z,22.78
